Time;durP1;ratioP1;P1;durP2;ratioP2;P2;SDS_P1;SDS_P2;PMS_P1;PMS_P2;Temp;Humidity;BMP_temperature;BMP_pressure;BME280_temperature;BME280_humidity;BME280_pressure;Samples;Min_cycle;Max_cycle;Signal;HPM_P1;HPM_P2
2022/10/18 00:00:51;;;;;;;5.90;3.27;;;;;;;15.30;76.88;99767.00;5114581;27;38895;-79
2022/10/18 00:03:19;;;;;;;3.37;3.07;;;;;;;15.18;76.84;99744.66;5114698;27;40617;-82
2022/10/18 00:05:47;;;;;;;4.80;4.30;;;;;;;15.24;76.87;99770.91;5133003;27;42969;-79
2022/10/18 00:08:16;;;;;;;3.53;2.87;;;;;;;15.14;76.56;99758.28;5131431;27;43905;-76
2022/10/18 00:10:45;;;;;;;4.07;3.30;;;;;;;15.19;76.92;99767.72;5114597;27;39895;-80
2022/10/18 00:13:13;;;;;;;4.07;3.13;;;;;;;15.16;77.37;99759.91;5131637;27;40688;-81
2022/10/18 00:15:48;;;;;;;4.13;3.50;;;;;;;14.99;77.55;99739.69;5114554;27;41627;-78
2022/10/18 00:18:16;;;;;;;4.23;3.83;;;;;;;15.12;77.28;99765.53;5131034;27;42058;-80
2022/10/18 00:20:43;;;;;;;6.23;4.03;;;;;;;15.09;77.60;99771.94;5115177;27;41484;-76
2022/10/18 00:23:11;;;;;;;7.57;3.40;;;;;;;15.08;77.83;99770.25;5114741;27;41798;-77
2022/10/18 00:25:39;;;;;;;4.90;3.33;;;;;;;15.07;77.94;99773.88;5132742;27;43712;-82
2022/10/18 00:28:08;;;;;;;4.10;3.70;;;;;;;15.06;77.47;99773.00;5132143;27;42295;-80
2022/10/18 00:30:35;;;;;;;3.73;3.40;;;;;;;15.05;77.61;99775.78;5115427;27;39199;-80
2022/10/18 00:33:03;;;;;;;3.73;3.43;;;;;;;14.99;77.39;99773.50;5133504;27;41660;-80
2022/10/18 00:35:31;;;;;;;3.93;3.50;;;;;;;15.01;77.64;99777.78;5115254;27;42768;-78
2022/10/18 00:37:58;;;;;;;3.43;3.03;;;;;;;15.01;77.42;99779.59;5132440;27;40501;-82
2022/10/18 00:40:26;;;;;;;4.60;3.80;;;;;;;14.99;77.60;99773.50;5132476;27;40796;-78
2022/10/18 00:42:53;;;;;;;5.80;3.53;;;;;;;14.97;78.03;99772.75;5133386;27;41915;-79
2022/10/18 00:45:25;;;;;;;3.97;3.57;;;;;;;14.92;78.85;99761.53;5115391;27;41123;-82
2022/10/18 00:47:57;;;;;;;4.30;3.60;;;;;;;14.94;78.98;99764.97;5115069;27;42514;-81
2022/10/18 00:50:27;;;;;;;4.87;3.87;;;;;;;14.92;79.65;99772.19;5133947;27;39442;-84
2022/10/18 00:52:58;;;;;;;6.97;4.20;;;;;;;14.86;78.90;99762.78;5112819;27;40811;-76
2022/10/18 00:55:26;;;;;;;3.60;3.30;;;;;;;14.94;78.81;99771.16;5114284;27;41610;-81
2022/10/18 00:57:55;;;;;;;4.33;3.20;;;;;;;15.03;78.44;99767.88;5114002;27;41200;-83
2022/10/18 01:00:24;;;;;;;5.77;3.73;;;;;;;15.12;78.63;99766.38;5132630;27;41003;-79
2022/10/18 01:02:52;;;;;;;4.27;3.43;;;;;;;15.18;78.17;99763.34;5130733;27;40669;-84
2022/10/18 01:05:21;;;;;;;3.30;3.00;;;;;;;15.21;77.67;99763.09;5131218;27;43518;-80
2022/10/18 01:08:24;;;;;;;3.17;2.80;;;;;;;15.20;78.29;99758.75;5131064;27;42130;-80
2022/10/18 01:11:02;;;;;;;3.27;2.90;;;;;;;15.18;77.75;99763.34;5108817;27;38903;-82
2022/10/18 01:13:41;;;;;;;4.07;3.33;;;;;;;15.14;77.75;99768.97;5130635;27;40833;-82
2022/10/18 01:16:16;;;;;;;4.53;3.20;;;;;;;15.12;78.03;99765.53;5113628;27;43229;-83
2022/10/18 01:18:49;;;;;;;3.80;3.40;;;;;;;15.09;77.85;99762.09;5130417;27;41805;-82
2022/10/18 01:21:25;;;;;;;3.40;3.10;;;;;;;15.09;77.58;99761.25;5130964;27;39330;-80
2022/10/18 01:24:29;;;;;;;3.43;3.00;;;;;;;15.12;78.01;99763.72;5114302;27;41518;-85
2022/10/18 01:27:15;;;;;;;3.43;3.13;;;;;;;15.17;77.85;99763.44;5126088;27;42597;-81
2022/10/18 01:29:59;;;;;;;3.47;3.17;;;;;;;15.21;77.68;99760.44;5130725;27;42598;-78
2022/10/18 01:32:34;;;;;;;5.07;3.00;;;;;;;15.28;77.17;99767.09;5127692;27;39917;-82
2022/10/18 01:35:07;;;;;;;3.07;2.77;;;;;;;15.34;77.11;99763.13;5114316;27;41057;-81
2022/10/18 01:37:37;;;;;;;3.40;3.10;;;;;;;15.40;76.79;99760.91;5131876;27;42481;-81
2022/10/18 01:40:07;;;;;;;4.30;3.27;;;;;;;15.45;76.91;99756.09;5134581;27;42371;-80
2022/10/18 01:42:35;;;;;;;3.27;2.97;;;;;;;15.39;76.84;99732.50;5116938;27;39019;-77
2022/10/18 01:45:04;;;;;;;4.83;2.90;;;;;;;15.58;76.81;99747.31;5135402;27;42062;-85
2022/10/18 01:47:35;;;;;;;3.10;2.80;;;;;;;15.62;76.94;99748.78;5134950;27;42410;-79
2022/10/18 01:50:06;;;;;;;3.20;2.87;;;;;;;15.65;76.52;99741.44;5118136;27;43584;-83
2022/10/18 01:52:34;;;;;;;3.53;3.07;;;;;;;15.70;76.69;99746.47;5117817;27;39123;-78
2022/10/18 01:55:03;;;;;;;3.87;3.20;;;;;;;15.74;76.39;99742.59;5117605;27;40519;-75
2022/10/18 01:57:37;;;;;;;3.30;2.80;;;;;;;15.76;76.33;99743.34;5117561;27;41667;-86
2022/10/18 02:00:13;;;;;;;3.00;2.80;;;;;;;15.78;76.39;99744.97;5134951;27;40988;-84
2022/10/18 02:02:48;;;;;;;4.83;3.40;;;;;;;15.85;76.23;99752.53;5134136;27;38839;-85
2022/10/18 02:05:24;;;;;;;3.13;2.93;;;;;;;15.86;76.46;99738.22;5130178;27;41857;-82
2022/10/18 02:07:59;;;;;;;3.40;3.10;;;;;;;15.91;76.21;99739.63;5130989;27;42749;-83
2022/10/18 02:10:33;;;;;;;4.07;3.27;;;;;;;15.74;76.48;99710.56;5133865;27;43277;-85
2022/10/18 02:13:02;;;;;;;3.60;2.83;;;;;;;15.92;76.81;99746.69;5133891;27;39915;-82
2022/10/18 02:15:33;;;;;;;3.53;3.23;;;;;;;15.92;76.89;99735.13;5133785;27;41639;-81
2022/10/18 02:18:08;;;;;;;4.90;3.10;;;;;;;15.99;76.87;99741.75;5132259;27;43673;-79
2022/10/18 02:20:38;;;;;;;4.10;3.70;;;;;;;16.00;76.45;99736.28;5116669;27;40948;-80
2022/10/18 02:23:08;;;;;;;3.57;3.23;;;;;;;16.04;76.96;99724.44;5116304;27;39243;-82
2022/10/18 02:25:36;;;;;;;3.53;3.23;;;;;;;16.01;77.07;99715.78;5133691;27;43316;-78
2022/10/18 02:28:05;;;;;;;6.27;3.37;;;;;;;15.88;77.00;99691.75;5134372;27;43759;-80
2022/10/18 02:30:37;;;;;;;5.07;3.50;;;;;;;16.06;77.26;99727.84;5133712;27;42290;-79
2022/10/18 02:33:14;;;;;;;3.73;3.10;;;;;;;16.05;76.95;99725.28;5132508;27;39884;-82
2022/10/18 02:35:47;;;;;;;3.40;3.10;;;;;;;16.04;76.70;99719.09;5116729;27;41771;-80
2022/10/18 02:38:17;;;;;;;2.77;2.57;;;;;;;16.03;77.07;99722.72;5116084;27;41474;-84
2022/10/18 02:40:45;;;;;;;3.73;3.30;;;;;;;16.02;76.82;99721.00;5116027;27;42087;-82
2022/10/18 02:43:14;;;;;;;3.50;3.20;;;;;;;16.00;77.07;99722.94;5133093;27;39039;-83
2022/10/18 02:45:42;;;;;;;3.60;3.10;;;;;;;15.98;76.91;99724.84;5133351;27;42057;-81
2022/10/18 02:48:11;;;;;;;3.60;3.30;;;;;;;16.00;77.00;99716.72;5132570;27;42830;-78
2022/10/18 02:50:39;;;;;;;4.10;3.40;;;;;;;16.01;76.95;99716.63;5133048;27;42844;-79
2022/10/18 02:53:07;;;;;;;3.50;3.13;;;;;;;16.01;77.27;99713.09;5115062;27;40749;-86
2022/10/18 02:55:34;;;;;;;4.50;3.27;;;;;;;16.03;77.44;99717.38;5115796;27;41041;-78
2022/10/18 02:58:09;;;;;;;4.17;3.77;;;;;;;16.02;77.56;99710.31;5131979;27;43649;-84
2022/10/18 03:00:36;;;;;;;3.60;3.30;;;;;;;16.04;77.21;99708.41;5132967;27;43223;-77
2022/10/18 03:03:04;;;;;;;4.00;3.00;;;;;;;16.12;77.32;99707.84;5115965;27;39738;-82
2022/10/18 03:05:33;;;;;;;3.80;3.50;;;;;;;16.15;77.06;99708.47;5134054;27;41522;-81
2022/10/18 03:08:01;;;;;;;5.30;4.80;;;;;;;16.19;76.83;99714.47;5133646;27;42869;-84
2022/10/18 03:10:28;;;;;;;4.03;3.20;;;;;;;16.23;76.83;99712.41;5134054;27;42041;-84
2022/10/18 03:12:56;;;;;;;4.97;3.17;;;;;;;16.25;77.19;99711.34;5133767;27;39756;-83
2022/10/18 03:15:24;;;;;;;4.50;4.07;;;;;;;16.26;77.40;99702.34;5133671;27;41928;-79
2022/10/18 03:17:52;;;;;;;5.40;4.00;;;;;;;16.28;77.39;99707.59;5116144;27;43167;-82
2022/10/18 03:20:19;;;;;;;4.27;3.87;;;;;;;16.29;77.25;99698.63;5116731;27;42266;-80
2022/10/18 03:22:49;;;;;;;6.70;4.43;;;;;;;16.30;77.89;99708.34;5133457;27;39890;-82
2022/10/18 03:25:17;;;;;;;6.20;4.40;;;;;;;16.29;78.15;99703.97;5135035;27;42655;-77
2022/10/18 03:27:45;;;;;;;5.17;4.17;;;;;;;16.32;77.71;99698.41;5131617;27;42768;-81
2022/10/18 03:30:13;;;;;;;4.40;4.00;;;;;;;16.25;77.82;99683.75;5132684;27;43178;-79
2022/10/18 03:32:41;;;;;;;4.83;3.50;;;;;;;16.37;77.36;99709.59;5132227;27;39177;-80
2022/10/18 03:35:10;;;;;;;3.47;3.17;;;;;;;16.40;77.41;99710.25;5132622;27;41792;-80
2022/10/18 03:37:38;;;;;;;4.43;4.00;;;;;;;16.41;77.30;99703.06;5133267;27;42822;-79
2022/10/18 03:40:09;;;;;;;4.90;3.60;;;;;;;16.40;77.57;99704.03;5114986;27;41707;-80
2022/10/18 03:42:37;;;;;;;4.30;3.83;;;;;;;16.44;77.55;99710.88;5130593;27;40910;-80
2022/10/18 03:45:05;;;;;;;3.90;3.50;;;;;;;16.46;77.55;99707.09;5133529;27;41913;-85
2022/10/18 03:47:33;;;;;;;4.60;3.50;;;;;;;16.48;77.56;99701.63;5132023;27;43680;-79
2022/10/18 03:50:00;;;;;;;4.17;3.77;;;;;;;16.48;77.18;99701.63;5132639;27;42979;-85
2022/10/18 03:52:28;;;;;;;4.80;4.40;;;;;;;16.51;77.16;99701.44;5132180;27;39867;-80
2022/10/18 03:54:56;;;;;;;4.17;3.77;;;;;;;16.52;77.10;99703.13;5114855;27;42103;-79
2022/10/18 03:57:25;;;;;;;3.90;3.47;;;;;;;16.53;77.24;99710.19;5114995;27;42389;-78
2022/10/18 03:59:53;;;;;;;3.63;3.33;;;;;;;16.53;77.10;99711.06;5132375;27;42556;-87
2022/10/18 04:02:20;;;;;;;4.10;3.40;;;;;;;16.54;77.35;99706.56;5114628;27;41610;-83
2022/10/18 04:04:48;;;;;;;4.13;3.30;;;;;;;16.54;77.15;99711.91;5132449;27;42410;-79
2022/10/18 04:07:16;;;;;;;3.10;2.80;;;;;;;16.55;76.98;99708.28;5114905;27;43325;-83
2022/10/18 04:09:44;;;;;;;3.93;3.20;;;;;;;16.55;77.21;99710.09;5133536;27;42351;-82
2022/10/18 04:12:12;;;;;;;3.37;3.07;;;;;;;16.48;76.96;99701.63;5132702;27;39243;-79
2022/10/18 04:14:41;;;;;;;4.00;3.30;;;;;;;16.52;77.04;99705.81;5133928;27;42781;-80
2022/10/18 04:17:09;;;;;;;3.77;3.47;;;;;;;16.46;77.42;99693.72;5132785;27;41442;-84
2022/10/18 04:19:36;;;;;;;4.93;3.50;;;;;;;16.48;77.06;99702.50;5132788;27;42284;-83
2022/10/18 04:22:04;;;;;;;5.20;3.47;;;;;;;16.47;77.37;99700.78;5132922;27;40042;-80
2022/10/18 04:24:32;;;;;;;3.63;3.00;;;;;;;16.49;77.14;99698.00;5115375;27;40380;-80
2022/10/18 04:26:59;;;;;;;3.47;3.10;;;;;;;16.43;77.24;99682.44;5134355;27;42777;-80
2022/10/18 04:29:27;;;;;;;3.40;3.10;;;;;;;16.43;76.87;99677.94;5132026;27;41355;-83
2022/10/18 04:31:57;;;;;;;3.83;3.30;;;;;;;16.44;77.05;99681.47;5115696;27;39059;-85
2022/10/18 04:34:25;;;;;;;3.57;3.27;;;;;;;16.48;76.76;99690.94;5132655;27;40869;-76
2022/10/18 04:36:53;;;;;;;3.57;3.27;;;;;;;16.49;77.08;99698.00;5132903;27;43843;-83
2022/10/18 04:39:21;;;;;;;5.20;3.10;;;;;;;16.50;76.67;99689.88;5113610;27;41173;-78
2022/10/18 04:41:48;;;;;;;4.57;3.10;;;;;;;16.50;77.04;99684.53;5131310;27;38890;-78
2022/10/18 04:44:16;;;;;;;3.73;3.07;;;;;;;16.51;77.23;99685.38;5131304;27;41001;-82
2022/10/18 04:46:44;;;;;;;3.50;3.20;;;;;;;16.42;77.06;99670.88;5131154;27;44691;-85
2022/10/18 04:49:13;;;;;;;3.77;3.37;;;;;;;16.50;76.97;99683.66;5132394;27;43258;-80
2022/10/18 04:51:41;;;;;;;4.50;3.20;;;;;;;16.51;77.14;99685.38;5114270;27;39028;-84
2022/10/18 04:54:08;;;;;;;4.60;3.17;;;;;;;16.49;77.34;99676.63;5130984;27;40876;-82
2022/10/18 04:56:36;;;;;;;3.47;3.17;;;;;;;16.52;76.90;99682.59;5132557;27;42706;-81
2022/10/18 04:59:04;;;;;;;4.60;3.67;;;;;;;16.53;76.80;99691.47;5130814;27;42116;-78
2022/10/18 05:01:32;;;;;;;4.00;3.70;;;;;;;16.53;77.19;99694.16;5113708;27;40239;-81
2022/10/18 05:04:00;;;;;;;4.33;3.40;;;;;;;16.23;77.11;99640.25;5130793;27;40837;-82
2022/10/18 05:06:29;;;;;;;3.97;3.60;;;;;;;16.53;77.16;99689.66;5148441;27;42808;-77
2022/10/18 05:08:57;;;;;;;5.10;3.87;;;;;;;16.53;77.12;99696.81;5130816;27;41206;-80
2022/10/18 05:11:25;;;;;;;5.43;3.50;;;;;;;16.52;77.44;99693.28;5116737;27;41362;-80
2022/10/18 05:13:53;;;;;;;4.07;3.67;;;;;;;16.51;77.25;99696.06;5142337;27;41496;-77
2022/10/18 05:16:20;;;;;;;4.23;3.73;;;;;;;16.51;77.59;99696.06;5146465;27;44082;-78
2022/10/18 05:18:48;;;;;;;5.43;3.90;;;;;;;16.49;77.05;99695.34;5145463;27;42394;-77
2022/10/18 05:21:16;;;;;;;4.57;3.27;;;;;;;16.46;77.25;99693.72;5145991;27;40176;-77
2022/10/18 05:23:46;;;;;;;4.20;3.73;;;;;;;16.44;77.53;99694.84;5146049;27;42018;-79
2022/10/18 05:26:13;;;;;;;3.33;3.03;;;;;;;16.40;77.30;99688.84;5145434;27;42718;-79
2022/10/18 05:28:41;;;;;;;3.37;3.03;;;;;;;16.35;77.67;99695.47;5140888;27;41043;-83
2022/10/18 05:31:11;;;;;;;3.70;3.40;;;;;;;16.30;77.48;99692.31;5095540;27;39852;-86
2022/10/18 05:33:38;;;;;;;4.13;3.80;;;;;;;16.26;77.78;99697.00;5117215;27;41790;-76
2022/10/18 05:36:07;;;;;;;4.80;4.30;;;;;;;16.21;77.75;99692.94;5150078;27;43691;-80
2022/10/18 05:38:34;;;;;;;4.07;3.77;;;;;;;16.19;77.84;99694.91;5155861;27;42459;-77
2022/10/18 05:41:05;;;;;;;4.53;3.60;;;;;;;16.21;77.93;99687.59;5118053;27;40593;-79
2022/10/18 05:43:33;;;;;;;5.73;3.77;;;;;;;16.22;78.10;99694.66;5133308;27;41572;-79
2022/10/18 05:46:01;;;;;;;4.13;3.73;;;;;;;16.25;77.84;99700.66;5133569;27;42565;-79
2022/10/18 05:48:28;;;;;;;4.10;3.70;;;;;;;16.27;77.85;99705.88;5134303;27;42485;-80
2022/10/18 05:50:58;;;;;;;3.70;3.40;;;;;;;16.29;77.47;99703.97;5149178;27;41699;-79
2022/10/18 05:53:25;;;;;;;7.17;3.63;;;;;;;16.28;77.46;99702.25;5136860;27;41945;-79
2022/10/18 05:55:53;;;;;;;3.90;3.60;;;;;;;16.27;77.41;99711.22;5154298;27;42649;-80
2022/10/18 05:58:22;;;;;;;5.17;4.70;;;;;;;16.22;77.73;99716.03;5137091;27;43328;-82
2022/10/18 06:00:50;;;;;;;5.07;4.60;;;;;;;16.16;77.68;99712.88;5154154;27;38809;-79
2022/10/18 06:03:18;;;;;;;5.03;4.33;;;;;;;16.08;78.14;99719.69;5154886;27;41705;-76
2022/10/18 06:05:46;;;;;;;4.83;4.33;;;;;;;16.04;78.27;99718.22;5140249;27;42877;-81
2022/10/18 06:08:13;;;;;;;7.53;5.10;;;;;;;15.81;78.67;99685.13;5115696;27;42304;-82
2022/10/18 06:10:41;;;;;;;6.53;4.30;;;;;;;16.00;78.38;99720.25;5133286;27;40040;-79
2022/10/18 06:13:09;;;;;;;5.30;4.40;;;;;;;16.00;78.28;99722.94;5134185;27;42773;-79
2022/10/18 06:15:38;;;;;;;5.60;4.60;;;;;;;15.99;78.52;99720.38;5115452;27;43106;-82
2022/10/18 06:18:06;;;;;;;5.50;4.40;;;;;;;15.97;78.37;99732.97;5133223;27;42364;-84
2022/10/18 06:20:34;;;;;;;5.60;5.00;;;;;;;15.94;78.74;99727.88;5133762;27;39673;-84
2022/10/18 06:23:02;;;;;;;4.97;4.03;;;;;;;15.91;78.61;99728.94;5132845;27;40364;-78
2022/10/18 06:25:29;;;;;;;5.20;4.70;;;;;;;15.81;78.64;99717.19;5134061;27;42063;-79
2022/10/18 06:27:57;;;;;;;4.37;3.97;;;;;;;15.89;78.61;99732.66;5116291;27;42746;-87
2022/10/18 06:30:25;;;;;;;6.17;3.90;;;;;;;15.79;78.84;99705.75;5116610;27;38677;-84
2022/10/18 06:32:53;;;;;;;8.70;4.37;;;;;;;15.58;78.77;99664.53;5134719;27;42640;-84
2022/10/18 06:35:21;;;;;;;6.23;4.30;;;;;;;15.97;78.70;99723.13;5116294;27;43274;-85
2022/10/18 06:37:49;;;;;;;5.33;4.83;;;;;;;16.02;78.53;99721.00;5133662;27;42893;-78
2022/10/18 06:40:17;;;;;;;9.53;4.93;;;;;;;16.05;78.58;99719.94;5134982;27;40152;-80
2022/10/18 06:42:46;;;;;;;4.93;4.43;;;;;;;16.07;78.59;99723.38;5133420;27;41031;-83
2022/10/18 06:45:14;;;;;;;5.03;4.53;;;;;;;16.11;78.37;99728.38;5116113;27;43258;-81
2022/10/18 06:47:42;;;;;;;7.63;5.10;;;;;;;16.08;78.84;99714.34;5133043;27;42223;-81
2022/10/18 06:50:11;;;;;;;6.23;5.40;;;;;;;16.20;78.92;99734.84;5133538;27;40883;-81
2022/10/18 06:52:40;;;;;;;5.93;4.90;;;;;;;16.28;78.54;99737.00;5132496;27;42052;-83
2022/10/18 06:55:09;;;;;;;4.40;4.00;;;;;;;16.26;78.79;99718.41;5131450;27;42825;-81
2022/10/18 06:57:37;;;;;;;7.17;4.87;;;;;;;16.30;78.37;99719.03;5134096;27;43196;-80
2022/10/18 07:00:05;;;;;;;5.97;4.70;;;;;;;16.52;78.41;99735.22;5133466;27;40160;-83
2022/10/18 07:02:33;;;;;;;8.07;5.63;;;;;;;16.55;78.90;99729.66;5134325;27;42011;-82
2022/10/18 07:05:01;;;;;;;10.07;5.20;;;;;;;16.70;78.47;99739.25;5134501;27;42685;-79
2022/10/18 07:07:32;;;;;;;6.53;4.70;;;;;;;16.92;78.42;99743.03;5132932;27;42472;-86
2022/10/18 07:09:59;;;;;;;8.03;5.87;;;;;;;17.19;77.89;99735.56;5116010;27;39057;-80
2022/10/18 07:12:27;;;;;;;6.27;5.30;;;;;;;17.48;76.85;99736.91;5133167;27;41727;-82
2022/10/18 07:14:55;;;;;;;8.33;5.40;;;;;;;17.55;76.98;99743.50;5134253;27;43598;-81
2022/10/18 07:17:23;;;;;;;7.80;5.40;;;;;;;17.64;76.74;99741.13;5133234;27;41985;-84
2022/10/18 07:19:51;;;;;;;5.23;4.73;;;;;;;17.76;76.84;99750.88;5132699;27;40185;-82
2022/10/18 07:22:19;;;;;;;5.33;4.83;;;;;;;17.90;76.60;99750.66;5115471;27;42077;-85
2022/10/18 07:24:48;;;;;;;5.63;4.70;;;;;;;18.22;76.01;99748.94;5132085;27;41528;-82
2022/10/18 07:27:16;;;;;;;5.40;4.90;;;;;;;18.42;75.65;99749.19;5132621;27;42116;-82
2022/10/18 07:29:43;;;;;;;4.73;3.87;;;;;;;18.59;75.44;99746.00;5133066;27;40405;-82
2022/10/18 07:32:11;;;;;;;6.20;4.70;;;;;;;18.79;75.11;99752.44;5133818;27;41783;-83
2022/10/18 07:34:38;;;;;;;7.50;5.10;;;;;;;19.02;74.35;99754.94;5131504;27;43722;-82
2022/10/18 07:37:06;;;;;;;5.97;4.27;;;;;;;19.18;73.95;99754.50;5134094;27;42203;-84
2022/10/18 07:39:34;;;;;;;4.80;4.20;;;;;;;19.27;73.62;99753.75;5115169;27;40305;-80
2022/10/18 07:42:03;;;;;;;4.53;3.87;;;;;;;19.32;73.44;99764.09;5133910;27;42074;-85
2022/10/18 07:44:31;;;;;;;4.83;4.43;;;;;;;19.35;73.18;99766.50;5133410;27;43727;-82
2022/10/18 07:46:59;;;;;;;5.40;3.80;;;;;;;19.40;72.92;99771.50;5133518;27;43248;-81
2022/10/18 07:49:26;;;;;;;5.07;4.03;;;;;;;19.43;73.07;99764.03;5115035;27;42132;-83
2022/10/18 07:51:54;;;;;;;4.70;4.27;;;;;;;19.44;72.77;99773.78;5133389;27;42700;-83
2022/10/18 07:54:22;;;;;;;5.03;4.27;;;;;;;19.41;72.72;99770.53;5131784;27;42019;-84
2022/10/18 07:56:50;;;;;;;7.17;5.03;;;;;;;19.30;72.76;99755.28;5114940;27;42390;-84
2022/10/18 07:59:19;;;;;;;4.77;3.83;;;;;;;19.38;72.37;99760.88;5115234;27;39928;-84
2022/10/18 08:01:46;;;;;;;5.67;3.97;;;;;;;19.53;72.53;99770.38;5131668;27;42608;-80
2022/10/18 08:04:14;;;;;;;3.73;3.43;;;;;;;19.61;72.20;99761.66;5131959;27;41665;-84
2022/10/18 08:06:42;;;;;;;6.77;4.27;;;;;;;20.01;71.87;99764.44;5133385;27;43059;-85
2022/10/18 08:09:09;;;;;;;5.90;4.17;;;;;;;20.34;71.29;99766.88;5132323;27;40198;-80
2022/10/18 08:11:37;;;;;;;5.40;3.97;;;;;;;20.78;70.53;99760.22;5132236;27;41953;-81
2022/10/18 08:14:05;;;;;;;5.90;4.30;;;;;;;20.96;69.57;99763.09;5132020;27;42508;-81
2022/10/18 08:16:34;;;;;;;4.47;4.07;;;;;;;21.06;69.06;99763.09;5131758;27;42085;-84
2022/10/18 08:19:02;;;;;;;6.13;4.20;;;;;;;21.14;68.62;99764.09;5131870;27;40693;-81
2022/10/18 08:21:29;;;;;;;4.97;4.53;;;;;;;21.83;66.21;99772.03;5115294;27;40811;-79
2022/10/18 08:23:57;;;;;;;4.67;3.93;;;;;;;21.69;66.39;99760.84;5114567;27;42825;-85
2022/10/18 08:26:24;;;;;;;6.70;4.13;;;;;;;21.48;66.59;99753.78;5131822;27;43226;-85
2022/10/18 08:28:52;;;;;;;8.37;4.13;;;;;;;21.58;67.03;99775.34;5114829;27;38843;-78
2022/10/18 08:31:20;;;;;;;4.90;3.70;;;;;;;21.55;67.29;99781.00;5132875;27;41845;-80
2022/10/18 08:33:49;;;;;;;6.03;4.00;;;;;;;21.47;67.30;99783.56;5114345;27;43066;-81
2022/10/18 08:36:17;;;;;;;6.30;4.93;;;;;;;21.40;67.36;99788.66;5131585;27;42382;-80
2022/10/18 08:38:44;;;;;;;5.57;3.77;;;;;;;21.29;67.22;99779.88;5114332;27;38647;-83
2022/10/18 08:41:30;;;;;;;7.10;4.60;;;;;;;21.12;67.72;99782.25;5131848;27;42668;-80
2022/10/18 08:44:07;;;;;;;5.03;4.20;;;;;;;20.97;67.83;99777.41;5114468;27;41600;-83
2022/10/18 08:46:39;;;;;;;7.63;4.20;;;;;;;20.88;68.20;99792.56;5127788;27;42152;-86
2022/10/18 08:49:15;;;;;;;5.00;3.50;;;;;;;20.80;68.73;99787.00;5130508;27;40051;-84
2022/10/18 08:51:47;;;;;;;4.73;4.00;;;;;;;20.70;69.01;99786.13;5131481;27;41649;-80
2022/10/18 08:54:18;;;;;;;7.40;4.07;;;;;;;20.61;69.13;99792.34;5131168;27;43478;-78
2022/10/18 08:56:54;;;;;;;7.00;3.83;;;;;;;20.56;69.36;99802.66;5132492;27;20879;-79
2022/10/18 08:59:22;;;;;;;4.13;3.57;;;;;;;20.53;69.59;99802.94;5114487;27;39234;-80
2022/10/18 09:02:02;;;;;;;4.67;3.80;;;;;;;20.46;69.61;99809.84;5113933;27;40455;-83
2022/10/18 09:04:42;;;;;;;6.87;4.37;;;;;;;20.38;69.58;99811.38;5130903;27;43458;-84
2022/10/18 09:07:41;;;;;;;8.10;3.60;;;;;;;20.12;70.18;99815.47;5131379;27;41074;-84
2022/10/18 09:10:21;;;;;;;8.40;4.60;;;;;;;19.67;72.21;99804.97;5114531;27;39687;-83
2022/10/18 09:13:07;;;;;;;4.93;4.20;;;;;;;19.47;73.84;99803.09;5128566;27;42705;-85
2022/10/18 09:15:45;;;;;;;4.30;3.90;;;;;;;19.29;74.24;99794.72;5127949;27;43582;-77
2022/10/18 09:18:37;;;;;;;4.47;3.97;;;;;;;19.17;75.27;99789.53;5113402;27;41050;-82
2022/10/18 09:21:18;;;;;;;5.13;3.87;;;;;;;19.09;76.03;99781.25;5114151;27;41627;-79
2022/10/18 09:23:48;;;;;;;6.03;4.50;;;;;;;19.04;76.62;99783.50;5131116;27;42039;-82
2022/10/18 09:26:18;;;;;;;6.73;4.73;;;;;;;18.90;77.07;99788.16;5113618;27;43208;-80
2022/10/18 09:29:05;;;;;;;5.93;3.90;;;;;;;18.98;77.09;99809.00;5130862;27;42170;-87
2022/10/18 09:31:42;;;;;;;6.33;5.30;;;;;;;18.98;77.28;99791.06;5113518;27;40424;-88
2022/10/18 09:34:18;;;;;;;6.60;5.47;;;;;;;18.87;78.15;99776.81;5130110;27;42017;-88
2022/10/18 09:36:52;;;;;;;8.63;5.10;;;;;;;19.09;78.43;99798.22;5130792;27;42527;-79
2022/10/18 09:39:25;;;;;;;7.50;5.30;;;;;;;19.30;77.88;99801.81;5131481;27;42902;-81
2022/10/18 09:41:57;;;;;;;6.60;5.03;;;;;;;19.55;78.29;99795.25;5127846;27;40180;-87
2022/10/18 09:44:28;;;;;;;6.57;4.40;;;;;;;19.83;77.97;99787.53;5130934;27;41003;-85
2022/10/18 09:47:02;;;;;;;4.87;4.37;;;;;;;19.80;77.70;99752.84;5127552;27;43088;-84
2022/10/18 09:49:34;;;;;;;5.57;4.70;;;;;;;20.20;77.96;99783.38;5130508;27;42898;-82
2022/10/18 09:52:09;;;;;;;4.80;4.27;;;;;;;20.48;77.89;99794.44;5130717;27;42443;-82
2022/10/18 09:54:43;;;;;;;5.77;5.17;;;;;;;20.59;77.30;99786.25;5130096;27;42930;-78
2022/10/18 09:57:17;;;;;;;5.77;5.27;;;;;;;20.73;76.91;99791.25;5128594;27;42708;-83
2022/10/18 09:59:47;;;;;;;7.00;4.50;;;;;;;20.76;76.61;99789.16;5135304;27;43212;-84
2022/10/18 10:02:16;;;;;;;8.20;5.97;;;;;;;20.81;76.52;99791.41;5134155;27;39943;-77
2022/10/18 10:04:44;;;;;;;8.20;5.80;;;;;;;20.82;76.18;99776.09;5133763;27;41834;-83
2022/10/18 10:07:18;;;;;;;6.80;6.10;;;;;;;20.90;76.05;99793.25;5134940;27;42682;-79
2022/10/18 10:09:48;;;;;;;6.77;5.90;;;;;;;20.98;75.97;99785.34;5134973;27;42418;-79
2022/10/18 10:12:31;;;;;;;7.97;6.27;;;;;;;21.20;75.74;99791.50;5134962;27;40094;-85
2022/10/18 10:15:16;;;;;;;7.47;6.13;;;;;;;21.39;75.21;99804.97;5116733;27;43164;-85
2022/10/18 10:17:44;;;;;;;6.63;5.73;;;;;;;21.36;74.28;99807.97;5116800;27;41340;-81
2022/10/18 10:20:18;;;;;;;7.27;5.40;;;;;;;21.25;74.58;99805.41;5116828;27;41079;-80
2022/10/18 10:22:50;;;;;;;5.60;5.10;;;;;;;21.18;74.88;99810.47;5131969;27;40861;-85
2022/10/18 10:25:22;;;;;;;8.50;5.23;;;;;;;20.95;75.17;99782.94;5130737;27;41690;-87
2022/10/18 10:27:51;;;;;;;6.77;5.53;;;;;;;20.98;75.21;99808.75;5133636;27;42844;-88
2022/10/18 10:30:25;;;;;;;6.23;4.50;;;;;;;20.92;75.49;99804.75;5135568;27;42173;-79
2022/10/18 10:32:54;;;;;;;6.57;5.90;;;;;;;20.97;75.60;99813.28;5134740;27;38918;-88
2022/10/18 10:35:24;;;;;;;6.20;4.40;;;;;;;20.96;75.81;99811.56;5116601;27;42056;-84
2022/10/18 10:37:53;;;;;;;7.20;5.27;;;;;;;20.99;75.62;99815.84;5133545;27;43408;-84
2022/10/18 10:40:23;;;;;;;6.27;5.60;;;;;;;21.00;75.82;99813.00;5116012;27;43733;-80
2022/10/18 10:42:58;;;;;;;6.43;5.20;;;;;;;21.06;75.46;99807.03;5116127;27;40488;-91
2022/10/18 10:45:28;;;;;;;6.63;5.33;;;;;;;21.10;75.41;99813.88;5133527;27;40906;-81
2022/10/18 10:48:04;;;;;;;8.30;5.00;;;;;;;21.07;75.22;99797.13;5133116;27;41917;-82
2022/10/18 10:50:32;;;;;;;6.13;4.80;;;;;;;21.24;75.55;99798.31;5133838;27;41525;-86
2022/10/18 10:53:03;;;;;;;8.93;5.87;;;;;;;21.33;74.98;99802.84;5132699;27;41117;-89
2022/10/18 10:55:36;;;;;;;5.67;4.33;;;;;;;21.44;74.77;99808.09;5133132;27;41814;-86
2022/10/18 10:58:04;;;;;;;7.27;5.10;;;;;;;21.57;74.57;99810.53;5131916;27;42826;-82
2022/10/18 11:00:41;;;;;;;5.83;4.77;;;;;;;21.72;74.15;99809.09;5133078;27;42428;-84
2022/10/18 11:03:15;;;;;;;8.10;5.27;;;;;;;21.86;73.58;99798.72;5131944;27;39634;-80
2022/10/18 11:05:45;;;;;;;6.40;5.00;;;;;;;21.98;73.18;99809.34;5134887;27;41441;-80
2022/10/18 11:08:18;;;;;;;6.33;4.50;;;;;;;22.03;73.33;99789.03;5131720;27;43507;-86
2022/10/18 11:10:59;;;;;;;5.23;4.70;;;;;;;22.21;73.21;99797.25;5133058;27;42724;-80
2022/10/18 11:13:43;;;;;;;7.77;4.90;;;;;;;22.37;72.92;99802.03;5131361;27;40883;-84
2022/10/18 11:16:17;;;;;;;6.67;5.40;;;;;;;22.46;72.38;99806.53;5115719;27;41789;-89
2022/10/18 11:18:51;;;;;;;6.40;5.13;;;;;;;22.49;72.46;99807.09;5131424;27;43657;-87
2022/10/18 11:21:22;;;;;;;5.70;5.17;;;;;;;22.26;72.44;99776.03;5115936;27;41734;-82
2022/10/18 11:23:51;;;;;;;6.03;4.90;;;;;;;22.45;72.27;99813.78;5132826;27;39914;-88
2022/10/18 11:26:41;;;;;;;5.10;4.70;;;;;;;22.45;71.88;99813.78;5132890;27;42706;-84
2022/10/18 11:29:24;;;;;;;6.13;5.43;;;;;;;22.57;71.89;99809.88;5131934;27;42461;-83
2022/10/18 11:32:06;;;;;;;7.30;4.80;;;;;;;22.72;71.42;99809.41;5131317;27;42158;-85
2022/10/18 11:34:49;;;;;;;6.83;5.33;;;;;;;22.92;71.10;99811.00;5115793;27;38871;-84
2022/10/18 11:37:35;;;;;;;6.23;5.00;;;;;;;23.08;70.42;99805.81;5132940;27;41076;-83
2022/10/18 11:40:15;;;;;;;5.23;4.73;;;;;;;23.23;70.18;99812.38;5116415;27;41370;-89
2022/10/18 11:42:52;;;;;;;4.87;4.37;;;;;;;23.23;70.02;99785.34;5130347;27;42437;-87
2022/10/18 11:45:32;;;;;;;6.00;4.60;;;;;;;23.54;69.77;99795.78;5130887;27;40124;-84
2022/10/18 11:48:12;;;;;;;5.47;4.33;;;;;;;23.78;68.41;99806.81;5132211;27;41829;-85
2022/10/18 11:50:48;;;;;;;6.50;4.83;;;;;;;23.87;68.70;99813.97;5131897;27;43933;-81